createdAt,value
2022-08-19T00:01:53.207Z,12.40
2022-08-19T00:04:24.385Z,14.23
2022-08-19T00:06:54.416Z,14.27
2022-08-19T00:09:24.505Z,15.20
2022-08-19T00:11:53.870Z,15.05
2022-08-19T00:14:22.872Z,15.82
2022-08-19T00:16:52.502Z,17.05
2022-08-19T00:19:20.676Z,15.10
2022-08-19T00:21:48.744Z,17.42
2022-08-19T00:24:18.305Z,11.85
2022-08-19T00:26:47.570Z,14.43
2022-08-19T00:29:18.132Z,12.38
2022-08-19T00:31:46.606Z,13.68
2022-08-19T00:34:16.403Z,13.55
2022-08-19T00:36:44.987Z,17.23
2022-08-19T00:39:14.085Z,14.23
2022-08-19T00:41:44.123Z,13.52
2022-08-19T00:44:15.691Z,14.60
2022-08-19T00:46:55.289Z,16.80
2022-08-19T00:49:30.070Z,12.88
2022-08-19T00:52:02.741Z,14.23
2022-08-19T00:54:32.474Z,14.40
2022-08-19T00:57:03.916Z,18.80
2022-08-19T00:59:56.225Z,14.40
2022-08-19T01:02:20.199Z,13.02
2022-08-19T01:04:49.036Z,15.23
2022-08-19T01:07:19.676Z,15.00
2022-08-19T01:09:48.775Z,17.50
2022-08-19T01:12:19.640Z,17.90
2022-08-19T01:14:49.781Z,21.83
2022-08-19T01:17:18.684Z,18.08
2022-08-19T01:19:48.731Z,20.25
2022-08-19T01:22:28.662Z,17.88
2022-08-19T01:25:02.542Z,19.52
2022-08-19T01:27:43.849Z,16.50
2022-08-19T01:30:15.206Z,15.13
2022-08-19T01:32:44.197Z,18.73
2022-08-19T01:35:14.198Z,12.60
2022-08-19T01:37:50.683Z,13.43
2022-08-19T01:40:22.245Z,15.30
2022-08-19T01:42:50.635Z,14.07
2022-08-19T01:45:18.984Z,18.45
2022-08-19T01:48:01.296Z,17.10
2022-08-19T01:50:30.875Z,14.30
2022-08-19T01:53:02.279Z,16.50
2022-08-19T01:55:41.052Z,14.02
2022-08-19T01:58:13.429Z,16.98
2022-08-19T02:00:42.121Z,16.70
2022-08-19T02:03:12.157Z,20.33
2022-08-19T02:05:40.678Z,20.55
2022-08-19T02:08:09.365Z,25.73
2022-08-19T02:10:41.498Z,21.20
2022-08-19T02:13:09.447Z,17.45
2022-08-19T02:15:37.398Z,21.52
2022-08-19T02:18:06.262Z,20.38
2022-08-19T02:20:34.864Z,20.58
2022-08-19T02:23:02.789Z,18.92
2022-08-19T02:25:30.709Z,18.90
2022-08-19T02:28:00.035Z,19.00
2022-08-19T02:30:28.864Z,20.67
2022-08-19T02:32:56.886Z,15.20
2022-08-19T02:35:24.890Z,18.13
2022-08-19T02:38:12.890Z,18.52
2022-08-19T02:40:40.789Z,20.00
2022-08-19T02:43:11.071Z,17.00
2022-08-19T02:45:41.622Z,18.60
2022-08-19T02:48:14.889Z,15.95
2022-08-19T02:50:53.797Z,15.85
2022-08-19T02:53:23.038Z,18.20
2022-08-19T02:55:51.794Z,14.43
2022-08-19T02:58:23.992Z,15.63
2022-08-19T03:00:55.027Z,18.50
2022-08-19T03:03:23.211Z,14.93
2022-08-19T03:05:56.524Z,15.10
2022-08-19T03:08:26.812Z,13.98
2022-08-19T03:10:55.071Z,15.07
2022-08-19T03:13:25.281Z,14.55
2022-08-19T03:15:53.294Z,19.55
2022-08-19T03:18:23.334Z,25.20
2022-08-19T03:20:55.455Z,24.23
2022-08-19T03:23:23.762Z,26.08
2022-08-19T03:26:03.934Z,24.05
2022-08-19T03:28:47.714Z,23.90
2022-08-19T03:31:43.455Z,20.88
2022-08-19T03:34:13.177Z,20.33
2022-08-19T03:36:41.781Z,23.85
2022-08-19T03:39:10.419Z,24.35
2022-08-19T03:41:44.578Z,33.38
2022-08-19T03:44:17.860Z,35.72
2022-08-19T03:46:47.952Z,30.88
2022-08-19T03:49:18.349Z,30.13
2022-08-19T03:51:48.667Z,27.70
2022-08-19T03:54:18.236Z,23.55
2022-08-19T03:56:47.946Z,19.83
2022-08-19T03:59:19.791Z,17.40
2022-08-19T04:01:48.044Z,18.92
2022-08-19T04:04:15.958Z,16.38
2022-08-19T04:06:48.178Z,16.42
2022-08-19T04:09:16.513Z,16.92
2022-08-19T04:11:47.583Z,18.42
2022-08-19T04:14:20.002Z,16.10
2022-08-19T04:16:49.047Z,19.30
2022-08-19T04:19:18.760Z,16.45
2022-08-19T04:21:48.797Z,16.92
2022-08-19T04:24:17.220Z,16.40
2022-08-19T04:26:45.544Z,20.27
2022-08-19T04:29:15.829Z,15.52
2022-08-19T04:31:46.530Z,16.23
2022-08-19T04:34:17.128Z,15.88
2022-08-19T04:36:46.597Z,15.80
2022-08-19T04:39:17.367Z,14.75
2022-08-19T04:42:02.952Z,17.67
2022-08-19T04:44:33.325Z,16.77
2022-08-19T04:47:11.024Z,18.23
2022-08-19T04:49:40.093Z,19.23
2022-08-19T04:52:09.404Z,19.35
2022-08-19T04:54:39.353Z,15.93
2022-08-19T04:57:10.607Z,16.50
2022-08-19T04:59:39.555Z,18.08
2022-08-19T05:02:09.809Z,16.95
2022-08-19T05:04:40.168Z,20.75
2022-08-19T05:07:08.957Z,14.77
2022-08-19T05:09:56.625Z,15.93
2022-08-19T05:12:29.383Z,16.02
2022-08-19T05:14:58.754Z,18.98
2022-08-19T05:17:32.415Z,19.15
2022-08-19T05:20:22.824Z,15.43
2022-08-19T05:22:50.911Z,14.98
2022-08-19T05:25:21.452Z,17.05
2022-08-19T05:27:49.844Z,15.52
2022-08-19T05:30:18.906Z,14.82
2022-08-19T05:33:03.549Z,14.45
2022-08-19T05:35:34.578Z,16.48
2022-08-19T05:38:02.810Z,14.93
2022-08-19T05:40:30.798Z,16.30
2022-08-19T05:42:58.746Z,16.83
2022-08-19T05:45:26.665Z,15.48
2022-08-19T05:47:55.184Z,16.30
2022-08-19T05:50:24.527Z,15.57
2022-08-19T05:52:52.542Z,16.17
2022-08-19T05:55:21.149Z,18.48
2022-08-19T05:57:49.129Z,17.42
2022-08-19T06:00:21.412Z,12.82
2022-08-19T06:02:52.892Z,18.67
2022-08-19T06:05:21.222Z,13.55
2022-08-19T06:07:50.585Z,13.40
2022-08-19T06:10:18.552Z,15.98
2022-08-19T06:12:46.502Z,15.88
2022-08-19T06:15:15.641Z,15.70
2022-08-19T06:17:45.205Z,18.40
2022-08-19T06:20:16.233Z,14.75
2022-08-19T06:22:46.431Z,16.83
2022-08-19T06:25:18.015Z,15.52
2022-08-19T06:28:13.419Z,14.88
2022-08-19T06:30:34.324Z,15.48
2022-08-19T06:33:02.248Z,15.93
2022-08-19T06:35:30.364Z,15.68
2022-08-19T06:37:58.496Z,16.35
2022-08-19T06:40:28.594Z,17.08
2022-08-19T06:42:57.255Z,14.93
2022-08-19T06:45:34.428Z,17.27
2022-08-19T06:48:04.057Z,16.90
2022-08-19T06:50:31.934Z,14.90
2022-08-19T06:52:59.836Z,16.10
2022-08-19T06:55:33.792Z,16.30
2022-08-19T06:58:04.642Z,16.75
2022-08-19T07:00:32.773Z,16.85
2022-08-19T07:03:06.132Z,16.80
2022-08-19T07:05:40.884Z,18.15
2022-08-19T07:08:14.230Z,19.13
2022-08-19T07:10:46.714Z,17.55
2022-08-19T07:13:14.930Z,20.80
2022-08-19T07:15:43.400Z,19.40
2022-08-19T07:18:11.682Z,18.52
2022-08-19T07:20:40.436Z,16.67
2022-08-19T07:23:15.879Z,16.55
2022-08-19T07:25:52.897Z,17.48
2022-08-19T07:28:24.437Z,17.63
2022-08-19T07:30:53.438Z,18.75
2022-08-19T07:33:21.672Z,20.52
2022-08-19T07:35:50.770Z,19.77
2022-08-19T07:38:19.118Z,21.30
2022-08-19T07:40:48.420Z,16.42
2022-08-19T07:43:17.925Z,15.77
2022-08-19T07:45:47.930Z,17.15
2022-08-19T07:48:16.447Z,20.23
2022-08-19T07:50:44.527Z,18.67
2022-08-19T07:53:12.884Z,16.67
2022-08-19T07:55:43.836Z,17.05
2022-08-19T07:58:15.646Z,18.02
2022-08-19T08:00:44.495Z,19.55
2022-08-19T08:03:12.778Z,16.92
2022-08-19T08:05:57.959Z,18.73
2022-08-19T08:08:44.189Z,20.75
2022-08-19T08:11:16.728Z,21.15
2022-08-19T08:13:46.923Z,25.10
2022-08-19T08:16:31.029Z,21.67
2022-08-19T08:18:59.187Z,19.92
2022-08-19T08:21:27.245Z,19.50
2022-08-19T08:23:56.686Z,21.83
2022-08-19T08:26:25.977Z,18.88
2022-08-19T08:28:55.672Z,23.75
2022-08-19T08:31:24.445Z,30.85
2022-08-19T08:33:52.331Z,25.00
2022-08-19T08:36:20.300Z,21.45
2022-08-19T08:38:49.098Z,19.30
2022-08-19T08:41:24.455Z,20.90
2022-08-19T08:43:55.155Z,22.02
2022-08-19T08:46:31.014Z,21.90
2022-08-19T08:49:04.622Z,20.00
2022-08-19T08:54:09.907Z,23.55
2022-08-19T08:56:40.250Z,24.02
2022-08-19T08:59:14.816Z,24.23
2022-08-19T09:01:42.873Z,23.70
2022-08-19T09:04:14.099Z,23.45
2022-08-19T09:06:52.745Z,24.98
2022-08-19T09:09:29.442Z,20.58
2022-08-19T09:12:07.756Z,19.88
2022-08-19T09:14:50.801Z,20.25
2022-08-19T09:17:21.960Z,22.75
2022-08-19T09:19:54.950Z,22.75
2022-08-19T09:22:25.704Z,19.42
2022-08-19T09:24:54.434Z,21.58
2022-08-19T09:27:42.069Z,23.88
2022-08-19T09:30:18.107Z,22.40
2022-08-19T09:32:46.525Z,20.45
2022-08-19T09:35:15.378Z,16.83
2022-08-19T09:37:44.361Z,19.58
2022-08-19T09:40:13.835Z,23.75
2022-08-19T09:42:49.935Z,21.13
2022-08-19T09:45:22.977Z,19.90
2022-08-19T09:47:54.145Z,20.23
2022-08-19T09:50:24.647Z,21.10
2022-08-19T09:52:57.047Z,18.17
2022-08-19T09:55:31.466Z,18.25
2022-08-19T09:58:02.012Z,21.05
2022-08-19T10:00:32.735Z,19.65
2022-08-19T10:03:01.159Z,18.25
2022-08-19T10:05:48.487Z,18.98
2022-08-19T10:08:17.660Z,21.35
2022-08-19T10:10:47.035Z,20.73
2022-08-19T10:13:16.861Z,20.95
2022-08-19T10:15:47.439Z,17.90
2022-08-19T10:18:18.715Z,16.05
2022-08-19T10:20:51.295Z,19.17
2022-08-19T10:23:20.704Z,18.25
2022-08-19T10:25:49.781Z,18.67
2022-08-19T10:28:19.138Z,21.27
2022-08-19T10:30:49.447Z,15.02
2022-08-19T10:33:38.175Z,18.20
2022-08-19T10:36:07.785Z,23.08
2022-08-19T10:38:35.948Z,19.20
2022-08-19T10:41:13.189Z,17.70
2022-08-19T10:43:41.710Z,17.73
2022-08-19T10:46:16.691Z,17.80
2022-08-19T10:48:46.380Z,19.08
2022-08-19T10:51:31.587Z,16.13
2022-08-19T10:54:00.116Z,16.73
2022-08-19T10:56:46.302Z,15.65
2022-08-19T10:59:15.045Z,19.23
2022-08-19T11:01:46.125Z,15.63
2022-08-19T11:04:18.314Z,20.60
2022-08-19T11:06:48.283Z,16.27
2022-08-19T11:09:17.607Z,17.55
2022-08-19T11:11:46.097Z,17.25
2022-08-19T11:14:16.807Z,17.13
2022-08-19T11:16:47.339Z,16.52
2022-08-19T11:19:18.006Z,16.83
2022-08-19T11:21:48.421Z,14.68
2022-08-19T11:24:21.182Z,15.63
2022-08-19T11:26:50.827Z,18.15
2022-08-19T11:29:20.781Z,13.68
2022-08-19T11:31:51.464Z,16.98
2022-08-19T11:34:22.212Z,15.95
2022-08-19T11:36:51.703Z,15.32
2022-08-19T11:39:23.461Z,15.73
2022-08-19T11:41:51.572Z,17.88
2022-08-19T11:44:19.652Z,14.27
2022-08-19T11:46:48.492Z,17.90
2022-08-19T11:49:20.721Z,16.35
2022-08-19T11:51:49.349Z,15.68
2022-08-19T11:54:18.119Z,16.77
2022-08-19T11:56:48.717Z,19.27
2022-08-19T11:59:16.937Z,16.52
2022-08-19T12:01:44.937Z,16.27
2022-08-19T12:04:13.411Z,13.55
2022-08-19T12:06:43.290Z,15.48
2022-08-19T12:09:12.699Z,12.77
2022-08-19T12:11:41.493Z,14.27
2022-08-19T12:14:14.600Z,11.07
2022-08-19T12:16:49.101Z,12.30
2022-08-19T12:19:22.402Z,16.88
2022-08-19T12:21:53.968Z,10.60
2022-08-19T12:24:24.312Z,12.65
2022-08-19T12:26:53.978Z,10.85
2022-08-19T12:29:23.907Z,9.48
2022-08-19T12:31:52.173Z,10.48
2022-08-19T12:34:21.029Z,10.00
2022-08-19T12:36:50.326Z,10.00
2022-08-19T12:39:19.808Z,13.02
2022-08-19T12:41:54.795Z,11.10
2022-08-19T12:44:28.827Z,12.20
2022-08-19T12:47:00.229Z,11.20
2022-08-19T12:49:52.112Z,8.70
2022-08-19T12:52:22.996Z,8.88
2022-08-19T12:54:53.807Z,11.20
2022-08-19T12:57:23.734Z,10.30
2022-08-19T13:00:01.115Z,12.32
2022-08-19T13:02:29.273Z,9.27
2022-08-19T13:04:57.790Z,9.18
2022-08-19T13:07:25.689Z,10.85
2022-08-19T13:09:54.987Z,9.65
2022-08-19T13:12:25.270Z,11.98
2022-08-19T13:14:53.360Z,9.82
2022-08-19T13:17:21.816Z,11.73
2022-08-19T13:19:49.899Z,9.48
2022-08-19T13:22:17.908Z,10.02
2022-08-19T13:24:47.398Z,11.07
2022-08-19T13:27:17.347Z,12.48
2022-08-19T13:30:02.878Z,12.50
2022-08-19T13:32:49.078Z,9.88
2022-08-19T13:35:17.599Z,13.38
2022-08-19T13:37:46.478Z,11.95
2022-08-19T13:40:19.381Z,12.30
2022-08-19T13:42:51.869Z,12.25
2022-08-19T13:45:23.356Z,10.67
2022-08-19T13:47:58.438Z,14.50
2022-08-19T13:50:29.685Z,14.23
2022-08-19T13:52:58.343Z,14.00
2022-08-19T13:55:27.706Z,9.10
2022-08-19T13:57:58.908Z,11.73
2022-08-19T14:00:29.326Z,11.30
2022-08-19T14:02:59.051Z,11.00
2022-08-19T14:05:29.641Z,16.38
2022-08-19T14:07:58.481Z,12.18
2022-08-19T14:10:27.098Z,12.23
2022-08-19T14:12:59.155Z,10.70
2022-08-19T14:15:28.230Z,12.80
2022-08-19T14:17:56.905Z,12.63
2022-08-19T14:20:26.020Z,11.90
2022-08-19T14:22:54.796Z,11.68
2022-08-19T14:25:24.935Z,11.18
2022-08-19T14:27:53.511Z,10.55
2022-08-19T14:30:26.441Z,14.38
2022-08-19T14:32:55.056Z,10.25
2022-08-19T14:35:23.896Z,11.00
2022-08-19T14:37:54.838Z,11.63
2022-08-19T14:40:26.769Z,12.35
2022-08-19T14:42:56.702Z,10.57
2022-08-19T14:45:26.095Z,13.85
2022-08-19T14:47:54.365Z,12.00
2022-08-19T14:50:24.715Z,10.68
2022-08-19T14:53:00.467Z,12.40
2022-08-19T14:55:28.440Z,14.40
2022-08-19T14:57:56.402Z,15.82
2022-08-19T15:00:27.934Z,11.25
2022-08-19T15:02:56.247Z,10.50
2022-08-19T15:05:24.444Z,8.60
2022-08-19T15:07:52.427Z,9.75
2022-08-19T15:10:20.312Z,9.45
2022-08-19T15:12:51.755Z,9.50
2022-08-19T15:15:20.755Z,11.23
2022-08-19T15:17:50.453Z,8.27
2022-08-19T15:20:22.071Z,9.13
2022-08-19T15:22:50.081Z,9.35
2022-08-19T15:25:21.235Z,9.88
2022-08-19T15:27:51.101Z,12.07
2022-08-19T15:30:23.062Z,10.18
2022-08-19T15:32:55.621Z,9.20
2022-08-19T15:35:24.641Z,12.10
2022-08-19T15:37:53.514Z,11.55
2022-08-19T15:40:22.873Z,9.48
2022-08-19T15:42:51.598Z,8.70
2022-08-19T15:45:20.829Z,8.90
2022-08-19T15:47:49.289Z,9.10
2022-08-19T15:50:22.197Z,9.50
2022-08-19T15:52:52.183Z,9.93
2022-08-19T15:55:34.084Z,10.77
2022-08-19T15:58:28.425Z,10.88
2022-08-19T16:01:15.560Z,12.20
2022-08-19T16:04:01.383Z,12.25
2022-08-19T16:06:31.490Z,21.23
2022-08-19T16:09:01.871Z,17.70
2022-08-19T16:11:32.432Z,15.20
2022-08-19T16:14:01.538Z,15.40
2022-08-19T16:16:33.739Z,18.50
2022-08-19T16:19:04.075Z,16.53
2022-08-19T16:21:34.351Z,14.77
2022-08-19T16:24:06.581Z,15.98
2022-08-19T16:26:35.199Z,19.73
2022-08-19T16:29:09.096Z,14.00
2022-08-19T16:31:41.433Z,15.57
2022-08-19T16:34:09.482Z,12.88
2022-08-19T16:36:42.033Z,13.70
2022-08-19T16:39:11.722Z,12.93
2022-08-19T16:41:40.437Z,14.88
2022-08-19T16:44:10.284Z,13.60
2022-08-19T16:46:41.558Z,14.13
2022-08-19T16:49:12.009Z,11.80
2022-08-19T16:51:42.472Z,11.52
2022-08-19T16:54:10.467Z,16.73
2022-08-19T16:56:38.433Z,11.90
2022-08-19T16:59:06.612Z,11.57
2022-08-19T17:01:34.536Z,13.30
2022-08-19T17:04:02.495Z,10.23
2022-08-19T17:06:32.052Z,9.68
2022-08-19T17:09:02.996Z,8.77
2022-08-19T17:11:32.841Z,9.25
2022-08-19T17:14:01.854Z,9.10
2022-08-19T17:16:32.675Z,9.55
2022-08-19T17:19:03.375Z,8.35
2022-08-19T17:21:33.315Z,10.88
2022-08-19T17:24:04.597Z,8.35
2022-08-19T17:26:33.127Z,7.70
2022-08-19T17:29:01.439Z,11.75
2022-08-19T17:31:31.324Z,8.82
2022-08-19T17:33:59.939Z,9.88
2022-08-19T17:36:29.621Z,8.00
2022-08-19T17:38:59.493Z,7.50
2022-08-19T17:41:33.722Z,7.82
2022-08-19T17:44:02.273Z,7.15
2022-08-19T17:46:30.449Z,8.15
2022-08-19T17:48:59.037Z,8.02
2022-08-19T17:51:42.119Z,11.30
2022-08-19T17:54:12.851Z,5.85
2022-08-19T17:56:42.833Z,7.95
2022-08-19T17:59:13.725Z,7.28
2022-08-19T18:01:51.882Z,6.93
2022-08-19T18:04:22.941Z,6.22
2022-08-19T18:06:53.077Z,9.57
2022-08-19T18:09:23.812Z,9.02
2022-08-19T18:11:55.458Z,7.90
2022-08-19T18:14:32.936Z,8.02
2022-08-19T18:17:01.665Z,8.95
2022-08-19T18:19:41.626Z,12.52
2022-08-19T18:22:11.799Z,8.38
2022-08-19T18:24:40.587Z,8.00
2022-08-19T18:27:10.118Z,8.95
2022-08-19T18:29:40.104Z,8.02
2022-08-19T18:32:12.603Z,8.65
2022-08-19T18:34:41.551Z,8.30
2022-08-19T18:37:10.543Z,10.60
2022-08-19T18:39:56.345Z,11.52
2022-08-19T18:42:43.354Z,11.77
2022-08-19T18:45:29.079Z,11.15
2022-08-19T18:48:26.346Z,12.23
2022-08-19T18:50:57.638Z,15.10
2022-08-19T18:53:26.283Z,12.57
2022-08-19T18:55:55.114Z,13.30
2022-08-19T18:58:26.548Z,12.68
2022-08-19T19:00:57.320Z,17.77
2022-08-19T19:03:26.232Z,16.38
2022-08-19T19:05:54.545Z,18.27
2022-08-19T19:08:26.696Z,17.00
2022-08-19T19:10:56.005Z,20.13
2022-08-19T19:13:26.760Z,18.77
2022-08-19T19:15:55.484Z,16.50
2022-08-19T19:18:23.465Z,19.77
2022-08-19T19:20:51.319Z,18.05
2022-08-19T19:23:20.570Z,18.67
2022-08-19T19:25:50.256Z,20.10
2022-08-19T19:28:25.428Z,19.45
2022-08-19T19:30:58.435Z,19.08
2022-08-19T19:33:26.778Z,19.25
2022-08-19T19:35:54.823Z,23.42
2022-08-19T19:38:22.777Z,19.40
2022-08-19T19:40:50.711Z,21.70
2022-08-19T19:43:19.199Z,20.58
2022-08-19T19:45:48.979Z,19.85
2022-08-19T19:48:18.524Z,17.60
2022-08-19T19:50:53.983Z,24.45
2022-08-19T19:53:24.198Z,19.50
2022-08-19T19:55:57.584Z,19.52
2022-08-19T19:58:28.490Z,17.20
2022-08-19T20:00:57.273Z,20.75
2022-08-19T20:03:26.813Z,22.55
2022-08-19T20:05:54.910Z,21.02
2022-08-19T20:08:40.293Z,23.10
2022-08-19T20:11:08.586Z,23.98
2022-08-19T20:13:39.572Z,21.88
2022-08-19T20:16:08.050Z,22.02
2022-08-19T20:18:40.163Z,23.42
2022-08-19T20:21:08.161Z,21.75
2022-08-19T20:23:36.297Z,24.70
2022-08-19T20:26:06.793Z,25.42
2022-08-19T20:28:40.232Z,24.27
2022-08-19T20:31:15.029Z,21.48
2022-08-19T20:33:44.521Z,22.30
2022-08-19T20:36:12.477Z,26.77
2022-08-19T20:38:40.411Z,23.73
2022-08-19T20:41:09.533Z,23.13
2022-08-19T20:43:37.804Z,23.33
2022-08-19T20:46:06.035Z,23.50
2022-08-19T20:48:36.182Z,21.95
2022-08-19T20:51:05.888Z,23.25
2022-08-19T20:53:35.044Z,24.95
2022-08-19T20:56:03.096Z,23.20
2022-08-19T20:58:31.829Z,25.15
2022-08-19T21:01:01.343Z,27.35
2022-08-19T21:03:32.312Z,24.40
2022-08-19T21:06:00.662Z,22.75
2022-08-19T21:08:30.050Z,21.83
2022-08-19T21:10:58.459Z,23.73
2022-08-19T21:13:26.893Z,25.02
2022-08-19T21:15:55.129Z,26.45
2022-08-19T21:18:25.551Z,22.90
2022-08-19T21:20:54.567Z,24.58
2022-08-19T21:23:24.726Z,24.25
2022-08-19T21:25:55.938Z,22.30
2022-08-19T21:28:34.513Z,24.02
2022-08-19T21:31:06.254Z,21.33
2022-08-19T21:33:34.260Z,20.65
2022-08-19T21:36:03.019Z,21.40
2022-08-19T21:38:31.239Z,23.67
2022-08-19T21:41:05.847Z,25.23
2022-08-19T21:43:34.823Z,27.55
2022-08-19T21:46:02.913Z,22.58
2022-08-19T21:48:30.907Z,23.42
2022-08-19T21:50:58.828Z,21.30
2022-08-19T21:53:34.083Z,25.38
2022-08-19T21:56:04.404Z,22.33
2022-08-19T21:58:33.528Z,19.50
2022-08-19T22:01:06.057Z,23.05
2022-08-19T22:03:34.636Z,21.67
2022-08-19T22:06:02.815Z,21.92
2022-08-19T22:08:31.626Z,22.85
2022-08-19T22:11:00.221Z,25.40
2022-08-19T22:13:33.735Z,21.05
2022-08-19T22:16:03.925Z,21.70
2022-08-19T22:18:31.932Z,24.25
2022-08-19T22:21:00.231Z,19.30
2022-08-19T22:23:28.176Z,20.80
2022-08-19T22:25:56.080Z,22.05
2022-08-19T22:28:27.936Z,20.75
2022-08-19T22:30:57.507Z,21.70
2022-08-19T22:33:27.603Z,20.73
2022-08-19T22:35:55.777Z,18.98
2022-08-19T22:38:25.254Z,22.55
2022-08-19T22:40:54.252Z,19.77
2022-08-19T22:43:26.131Z,21.75
2022-08-19T22:45:58.057Z,23.80
2022-08-19T22:48:28.938Z,19.00
2022-08-19T22:51:15.798Z,22.25
2022-08-19T22:53:46.535Z,22.05
2022-08-19T22:56:18.005Z,19.63
2022-08-19T22:58:49.990Z,22.88
2022-08-19T23:01:30.107Z,20.15
2022-08-19T23:03:58.953Z,20.27
2022-08-19T23:06:33.187Z,21.83
2022-08-19T23:09:04.819Z,20.08
2022-08-19T23:11:35.706Z,20.38
2022-08-19T23:14:09.548Z,21.73
2022-08-19T23:16:39.391Z,19.92
2022-08-19T23:19:09.859Z,17.27
2022-08-19T23:21:38.793Z,20.02
2022-08-19T23:24:07.382Z,17.95
2022-08-19T23:26:36.203Z,17.65
2022-08-19T23:29:22.803Z,20.25
2022-08-19T23:31:52.350Z,20.00
2022-08-19T23:34:20.262Z,16.80
2022-08-19T23:36:48.418Z,18.08
2022-08-19T23:39:16.417Z,21.35
2022-08-19T23:41:44.640Z,16.95
2022-08-19T23:44:14.726Z,21.17
2022-08-19T23:46:54.561Z,17.25
2022-08-19T23:49:25.812Z,17.85
2022-08-19T23:51:55.608Z,15.88
2022-08-19T23:54:32.042Z,19.15
2022-08-19T23:57:13.956Z,18.30
2022-08-19T23:59:42.540Z,21.48
